Time;durP1;ratioP1;P1;durP2;ratioP2;P2;SDS_P1;SDS_P2;PMS_P1;PMS_P2;Temp;Humidity;BMP_temperature;BMP_pressure;BME280_temperature;BME280_humidity;BME280_pressure;Samples;Min_cycle;Max_cycle;Signal;HPM_P1;HPM_P2
2022/08/02 00:00:42;;;;;;;;;5.00;5.00;;;;;21.65;58.02;100988.84;5075199;27;45409;-78
2022/08/02 00:03:08;;;;;;;;;4.50;4.50;;;;;21.65;58.04;101012.94;5064739;28;45548;-74
2022/08/02 00:05:33;;;;;;;;;4.75;4.75;;;;;21.63;58.11;100997.94;5057700;28;45326;-76
2022/08/02 00:07:58;;;;;;;;;3.00;3.00;;;;;21.58;58.30;100999.16;5056927;28;46177;-76
2022/08/02 00:10:24;;;;;;;;;4.25;4.25;;;;;21.55;58.49;101001.25;5058462;28;45327;-76
2022/08/02 00:12:49;;;;;;;;;5.25;5.25;;;;;21.54;58.56;101007.56;5075435;28;45239;-76
2022/08/02 00:15:15;;;;;;;;;4.00;4.00;;;;;21.37;58.25;100991.03;5076271;28;45642;-76
2022/08/02 00:17:40;;;;;;;;;2.75;2.75;;;;;21.49;58.53;101007.94;5076097;27;46026;-75
2022/08/02 00:20:06;;;;;;;;;3.25;3.25;;;;;21.45;58.89;101007.34;5076121;28;45255;-78
2022/08/02 00:22:31;;;;;;;;;4.00;4.00;;;;;21.40;59.09;100989.94;5075051;27;45398;-77
2022/08/02 00:24:57;;;;;;;;;4.75;4.75;;;;;21.41;58.95;100997.00;5074336;27;45239;-76
2022/08/02 00:27:22;;;;;;;;;3.75;3.75;;;;;21.36;58.75;100993.81;5076363;27;46471;-76
2022/08/02 00:29:49;;;;;;;;;5.00;5.00;;;;;21.33;58.46;100989.59;5077749;27;45255;-77
2022/08/02 00:32:14;;;;;;;;;4.50;4.50;;;;;21.35;58.46;100987.63;5078958;27;45299;-75
2022/08/02 00:34:40;;;;;;;;;4.00;4.00;;;;;21.31;58.48;100981.66;5080615;27;45501;-77
2022/08/02 00:37:05;;;;;;;;;3.25;3.25;;;;;21.31;58.95;100989.69;5079462;28;49349;-78
2022/08/02 00:39:30;;;;;;;;;3.50;3.50;;;;;21.29;58.77;100997.00;5079977;27;45356;-75
2022/08/02 00:41:56;;;;;;;;;4.25;4.25;;;;;21.25;58.47;100989.34;5079172;27;45543;-78
2022/08/02 00:44:21;;;;;;;;;3.25;3.25;;;;;21.25;58.25;101000.03;5079631;27;45509;-77
2022/08/02 00:46:47;;;;;;;;;4.00;4.00;;;;;21.22;58.48;100993.09;5078216;27;46001;-76
2022/08/02 00:49:13;;;;;;;;;3.25;3.25;;;;;21.20;58.17;100987.03;5079653;28;45930;-77
2022/08/02 00:51:39;;;;;;;;;4.00;4.00;;;;;21.18;58.49;100991.63;5078828;27;45698;-77
2022/08/02 00:54:05;;;;;;;;;4.00;4.00;;;;;21.17;58.09;100997.97;5078946;28;45262;-77
2022/08/02 00:56:31;;;;;;;;;4.00;4.00;;;;;21.07;58.27;100981.78;5077523;27;46146;-76
2022/08/02 00:58:57;;;;;;;;;3.00;3.00;;;;;21.12;58.61;100998.31;5078773;28;45299;-76
2022/08/02 01:01:41;;;;;;;;;5.50;5.50;;;;;21.10;58.81;101000.25;5078503;28;45481;-75
2022/08/02 01:04:09;;;;;;;;;7.00;7.00;;;;;21.05;58.57;100993.56;5079202;27;45240;-75
2022/08/02 01:06:36;;;;;;;;;5.50;5.50;;;;;21.01;58.58;100990.28;5077790;27;45397;-74
2022/08/02 01:09:03;;;;;;;;;4.25;4.25;;;;;20.99;58.54;100993.09;5076874;27;45402;-75
2022/08/02 01:11:29;;;;;;;;;4.00;4.00;;;;;20.97;58.43;100999.50;5077744;28;45462;-78
2022/08/02 01:14:05;;;;;;;;;3.50;3.50;;;;;20.93;58.40;100995.38;5080364;27;45560;-77
2022/08/02 01:16:35;;;;;;;;;3.75;3.75;;;;;20.93;58.33;100995.38;5092248;27;46218;-71
2022/08/02 01:19:17;;;;;;;;;3.50;3.50;;;;;20.89;58.58;100994.78;5091680;28;45440;-73
2022/08/02 01:22:11;;;;;;;;;5.25;5.25;;;;;20.86;59.15;100995.00;5085630;27;45324;-76
2022/08/02 01:24:58;;;;;;;;;4.00;4.00;;;;;20.89;59.10;101001.94;5082813;28;45549;-72
2022/08/02 01:27:39;;;;;;;;;3.75;3.75;;;;;20.86;58.75;101003.03;5076408;27;45356;-72
2022/08/02 01:30:06;;;;;;;;;1.75;1.75;;;;;20.79;58.74;100996.47;5078239;27;45309;-77
2022/08/02 01:32:36;;;;;;;;;3.75;3.75;;;;;20.80;58.85;101001.66;5077030;27;45330;-74
2022/08/02 01:35:09;;;;;;;;;3.25;3.25;;;;;20.79;58.93;101009.81;5077969;27;45394;-77
2022/08/02 01:37:51;;;;;;;;;3.00;3.00;;;;;20.71;58.76;100992.53;5075468;27;47195;-77
2022/08/02 01:40:24;;;;;;;;;3.00;3.00;;;;;20.73;59.16;101006.63;5075973;27;45353;-76
2022/08/02 01:42:54;;;;;;;;;4.75;4.75;;;;;20.75;58.71;101011.84;5077713;27;45299;-78
2022/08/02 01:45:23;;;;;;;;;3.75;3.75;;;;;20.76;59.07;101015.38;5077356;28;45552;-76
2022/08/02 01:47:50;;;;;;;;;3.00;3.00;;;;;20.70;59.19;101003.31;5077942;27;45593;-77
2022/08/02 01:50:20;;;;;;;;;2.75;2.75;;;;;20.73;59.27;101013.78;5080964;28;45216;-76
2022/08/02 01:52:52;;;;;;;;;3.00;3.00;;;;;20.70;58.99;101012.22;5087615;28;45326;-74
2022/08/02 01:55:39;;;;;;;;;4.25;4.25;;;;;20.69;59.25;101006.97;5078233;27;45566;-76
2022/08/02 01:58:06;;;;;;;;;4.00;4.00;;;;;20.67;59.15;101007.06;5074978;27;45463;-79
2022/08/02 02:00:38;;;;;;;;;4.25;4.25;;;;;20.65;59.09;101000.16;5073153;28;45344;-79
2022/08/02 02:03:05;;;;;;;;;4.75;4.75;;;;;20.63;59.88;101000.25;5057539;28;45521;-80
2022/08/02 02:05:32;;;;;;;;;4.50;4.50;;;;;20.63;59.67;101002.09;5057494;28;45473;-78
2022/08/02 02:08:00;;;;;;;;;3.75;3.75;;;;;20.64;59.88;100999.28;5057353;28;46160;-80
2022/08/02 02:10:31;;;;;;;;;3.00;3.00;;;;;20.61;60.01;100991.50;5056274;28;45323;-77
2022/08/02 02:13:10;;;;;;;;;3.00;3.00;;;;;20.57;60.36;100992.69;5057337;28;45326;-79
2022/08/02 02:15:40;;;;;;;;;5.00;5.00;;;;;20.52;59.78;100992.19;5057440;28;45272;-78
2022/08/02 02:18:07;;;;;;;;;4.25;4.25;;;;;20.54;60.23;100995.59;5056727;28;45520;-78
2022/08/02 02:20:32;;;;;;;;;4.00;4.00;;;;;20.46;60.79;100980.19;5057019;28;45343;-77
2022/08/02 02:22:58;;;;;;;;;4.25;4.25;;;;;20.48;60.82;100978.25;5056986;28;45401;-78
2022/08/02 02:25:23;;;;;;;;;4.25;4.25;;;;;20.50;60.77;100984.31;5056989;28;45567;-78
2022/08/02 02:27:57;;;;;;;;;5.00;5.00;;;;;20.45;60.78;100978.47;5056952;28;46741;-77
2022/08/02 02:30:26;;;;;;;;;6.00;6.00;;;;;20.47;60.91;100984.56;5056298;27;45387;-80
2022/08/02 02:32:54;;;;;;;;;4.25;4.25;;;;;20.46;60.64;100995.34;5056866;28;45304;-79
2022/08/02 02:35:21;;;;;;;;;5.25;3.75;;;;;20.44;60.93;100987.47;5057496;28;45505;-76
2022/08/02 02:37:48;;;;;;;;;4.00;4.00;;;;;20.42;60.95;100994.75;5056675;28;45485;-78
2022/08/02 02:40:16;;;;;;;;;4.75;4.75;;;;;20.35;61.13;100978.31;5056836;28;45481;-77
2022/08/02 02:42:43;;;;;;;;;6.00;6.00;;;;;20.37;61.19;100980.88;5055052;28;45426;-77
2022/08/02 02:45:10;;;;;;;;;4.50;4.50;;;;;20.33;61.08;100974.06;5057033;28;45267;-76
2022/08/02 02:47:36;;;;;;;;;6.25;6.25;;;;;20.29;61.07;100968.94;5056272;28;45392;-77
2022/08/02 02:50:02;;;;;;;;;4.25;4.25;;;;;20.33;60.90;100974.91;5056384;28;45339;-78
2022/08/02 02:52:28;;;;;;;;;5.25;5.25;;;;;20.24;61.32;100965.78;5055808;28;45414;-79
2022/08/02 02:54:55;;;;;;;;;3.75;3.75;;;;;20.33;60.95;100980.25;5057008;28;45272;-79
2022/08/02 02:57:21;;;;;;;;;4.25;4.25;;;;;20.31;61.65;100976.00;5056484;28;46289;-78
2022/08/02 02:59:47;;;;;;;;;3.25;3.25;;;;;20.22;61.37;100970.38;5056559;28;45288;-78
2022/08/02 03:02:13;;;;;;;;;5.75;5.75;;;;;20.26;61.24;100979.00;5056885;28;45216;-79
2022/08/02 03:04:40;;;;;;;;;6.00;6.00;;;;;20.21;61.42;100957.13;5056103;28;45546;-80
2022/08/02 03:07:06;;;;;;;;;5.00;5.00;;;;;20.24;61.71;100971.13;5056472;28;46491;-79
2022/08/02 03:09:32;;;;;;;;;6.25;6.25;;;;;20.24;61.52;100971.13;5056970;28;45398;-78
2022/08/02 03:11:58;;;;;;;;;5.00;5.00;;;;;20.23;61.60;100972.09;5058108;28;45330;-78
2022/08/02 03:14:23;;;;;;;;;4.00;4.00;;;;;20.20;61.32;100975.00;5060113;28;45585;-79
2022/08/02 03:16:53;;;;;;;;;5.00;5.00;;;;;20.19;61.63;100973.28;5060816;28;45447;-77
2022/08/02 03:19:20;;;;;;;;;5.00;5.00;;;;;20.15;61.60;100971.81;5086714;28;45253;-77
2022/08/02 03:21:47;;;;;;;;;5.00;5.00;;;;;20.15;61.97;100974.47;5070581;28;45332;-77
2022/08/02 03:24:13;;;;;;;;;0.00;0.00;;;;;20.13;61.71;100974.56;5069527;28;44857;-76
2022/08/02 03:26:39;;;;;;;;;3.00;3.00;;;;;20.12;62.12;100982.69;5063395;28;45514;-79
2022/08/02 03:29:05;;;;;;;;;6.00;6.00;;;;;20.10;61.39;100974.81;5056566;28;45687;-80
2022/08/02 03:31:31;;;;;;;;;5.50;5.50;;;;;20.07;62.17;100976.84;5056809;28;45298;-78
2022/08/02 03:34:00;;;;;;;;;4.50;4.50;;;;;20.07;62.00;100975.03;5056475;28;45543;-78
2022/08/02 03:36:29;;;;;;;;;6.25;6.25;;;;;20.09;61.83;100974.91;5055662;28;45329;-79
2022/08/02 03:38:56;;;;;;;;;6.00;6.00;;;;;20.03;62.04;100957.53;5055732;28;45476;-80
2022/08/02 03:41:22;;;;;;;;;6.00;6.00;;;;;20.05;62.37;100962.75;5056451;28;45423;-79
2022/08/02 03:43:49;;;;;;;;;5.25;5.25;;;;;20.05;62.29;100971.63;5057833;28;45330;-78
2022/08/02 03:46:18;;;;;;;;;3.00;3.00;;;;;20.05;61.84;100970.75;5056632;28;46202;-76
2022/08/02 03:48:44;;;;;;;;;8.50;8.50;;;;;20.04;62.21;100969.06;5056007;28;45420;-78
2022/08/02 03:51:10;;;;;;;;;6.25;6.25;;;;;20.00;62.32;100963.94;5055923;28;45569;-78
2022/08/02 03:53:36;;;;;;;;;6.50;6.50;;;;;19.97;61.80;100958.00;5056300;28;45312;-80
2022/08/02 03:56:03;;;;;;;;;7.50;7.50;;;;;19.97;62.16;100953.50;5055899;28;45723;-78
2022/08/02 03:58:29;;;;;;;;;6.25;6.25;;;;;20.00;62.33;100953.25;5054536;28;45503;-78
2022/08/02 04:00:57;;;;;;;;;7.00;7.00;;;;;19.90;61.89;100930.88;5059322;28;45272;-78
2022/08/02 04:03:22;;;;;;;;;6.50;6.50;;;;;19.99;62.19;100951.56;5073509;28;44841;-74
2022/08/02 04:05:48;;;;;;;;;6.00;6.00;;;;;19.97;61.64;100953.50;5073704;28;45347;-78
2022/08/02 04:08:14;;;;;;;;;6.00;6.00;;;;;20.00;61.93;100960.44;5065784;28;45433;-74
2022/08/02 04:13:32;;;;;;;;;5.25;5.25;;;;;19.95;62.07;100958.09;5059467;28;45386;-75
2022/08/02 04:16:04;;;;;;;;;8.00;8.00;;;;;19.80;61.96;100943.19;5058860;28;45459;-79
2022/08/02 04:18:38;;;;;;;;;6.25;6.25;;;;;19.90;62.32;100954.91;5058838;28;45473;-78
2022/08/02 04:21:05;;;;;;;;;8.00;8.00;;;;;19.90;62.36;100954.91;5059036;28;45217;-80
2022/08/02 04:23:33;;;;;;;;;10.00;10.00;;;;;19.88;62.76;100959.47;5059456;28;45422;-79
2022/08/02 04:26:00;;;;;;;;;6.00;6.00;;;;;19.78;62.33;100939.78;5060241;28;45508;-80
2022/08/02 04:28:27;;;;;;;;;9.25;9.25;;;;;19.84;62.92;100952.66;5060476;28;45352;-79
2022/08/02 04:30:54;;;;;;;;;5.25;5.25;;;;;19.85;62.86;100949.91;5058784;28;45278;-79
2022/08/02 04:33:19;;;;;;;;;7.00;7.00;;;;;19.82;62.79;100943.91;5060625;28;45457;-77
2022/08/02 04:35:45;;;;;;;;;7.00;7.00;;;;;19.91;62.17;100958.44;5057642;28;47931;-79
2022/08/02 04:38:15;;;;;;;;;5.75;5.75;;;;;19.88;62.29;100959.47;5059505;28;45448;-79
2022/08/02 04:40:49;;;;;;;;;6.50;6.25;;;;;19.91;62.26;100967.28;5059154;28;45389;-78
2022/08/02 04:43:15;;;;;;;;;7.50;7.00;;;;;19.88;62.32;100958.66;5058797;28;45466;-76
2022/08/02 04:45:42;;;;;;;;;7.25;7.25;;;;;19.87;62.23;100973.78;5073598;27;46386;-79
2022/08/02 04:48:07;;;;;;;;;6.00;6.00;;;;;19.87;61.99;100971.13;5058072;27;45164;-75
2022/08/02 04:50:33;;;;;;;;;5.50;5.50;;;;;19.85;62.34;100973.94;5058301;28;45394;-77
2022/08/02 04:52:58;;;;;;;;;5.00;5.00;;;;;19.86;62.33;100974.75;5059272;28;45312;-76
2022/08/02 04:55:27;;;;;;;;;5.00;5.00;;;;;19.74;62.03;100951.63;5058425;28;46218;-76
2022/08/02 04:57:56;;;;;;;;;5.00;5.00;;;;;19.87;61.98;100968.47;5058646;28;45261;-79
2022/08/02 05:00:22;;;;;;;;;5.50;5.50;;;;;19.87;62.08;100962.28;5059766;28;45267;-78
2022/08/02 05:02:49;;;;;;;;;6.75;6.75;;;;;19.89;62.17;100963.84;5058417;28;45544;-79
2022/08/02 05:05:15;;;;;;;;;6.00;6.00;;;;;19.86;62.24;100961.41;5058455;28;45548;-79
2022/08/02 05:07:41;;;;;;;;;4.75;4.75;;;;;19.92;62.36;100965.50;5058493;28;45415;-78
2022/08/02 05:10:07;;;;;;;;;6.00;6.00;;;;;19.81;62.37;100943.09;5074080;27;45440;-77
2022/08/02 05:12:32;;;;;;;;;5.75;5.75;;;;;19.95;62.08;100971.44;5057416;28;45352;-76
2022/08/02 05:14:58;;;;;;;;;5.50;5.50;;;;;19.96;61.88;100966.97;5058470;28;46014;-78
2022/08/02 05:17:23;;;;;;;;;4.00;4.00;;;;;20.04;61.71;100963.72;5063316;28;45348;-77
2022/08/02 05:19:48;;;;;;;;;5.00;5.00;;;;;20.19;61.27;100959.06;5066933;28;45264;-79
2022/08/02 05:22:13;;;;;;;;;6.75;6.75;;;;;20.41;61.43;100952.97;5066470;28;45653;-76
2022/08/02 05:24:39;;;;;;;;;3.00;3.00;;;;;20.69;60.37;100956.19;5062825;28;46433;-78
2022/08/02 05:27:04;;;;;;;;;5.25;5.25;;;;;20.93;60.14;100960.63;5057743;28;45362;-77
2022/08/02 05:29:30;;;;;;;;;3.00;3.00;;;;;21.09;59.63;100965.63;5058410;28;45652;-79
2022/08/02 05:31:55;;;;;;;;;5.00;5.00;;;;;21.19;59.27;100971.94;5058818;28;45231;-80
2022/08/02 05:34:20;;;;;;;;;5.00;5.00;;;;;21.15;58.97;100962.47;5058354;27;46031;-79
2022/08/02 05:36:46;;;;;;;;;4.00;4.00;;;;;21.21;58.96;100982.53;5058655;28;45345;-78
2022/08/02 05:39:11;;;;;;;;;5.75;5.75;;;;;21.21;59.24;100986.03;5058761;28;45791;-80
2022/08/02 05:41:36;;;;;;;;;6.75;6.75;;;;;21.25;58.78;100984.00;5059008;28;45478;-77
2022/08/02 05:44:03;;;;;;;;;6.00;6.00;;;;;21.32;58.87;100979.84;5059510;28;45438;-78
2022/08/02 05:46:28;;;;;;;;;4.25;4.25;;;;;21.39;59.05;100986.41;5059005;28;45617;-75
2022/08/02 05:48:54;;;;;;;;;12.25;12.25;;;;;21.42;58.62;100979.97;5058056;28;45420;-76
2022/08/02 05:51:28;;;;;;;;;6.00;6.00;;;;;21.47;58.32;100988.47;5058324;28;45385;-75
2022/08/02 05:54:06;;;;;;;;;4.25;4.25;;;;;21.32;58.08;100953.09;5058262;28;45463;-76
2022/08/02 05:56:53;;;;;;;;;6.25;6.25;;;;;21.48;58.08;100981.31;5058038;28;45334;-75
2022/08/02 05:59:29;;;;;;;;;6.00;6.00;;;;;21.45;57.75;100979.72;5057729;28;45298;-79
2022/08/02 06:02:01;;;;;;;;;5.50;5.50;;;;;21.33;57.39;100972.66;5059667;28;45395;-77
2022/08/02 06:04:36;;;;;;;;;12.75;12.75;;;;;21.28;58.30;100976.56;5062801;28;46600;-77
2022/08/02 06:07:05;;;;;;;;;6.00;6.00;;;;;21.25;58.19;100976.81;5057977;28;45330;-79
2022/08/02 06:09:32;;;;;;;;;7.75;7.75;;;;;21.20;58.67;100978.13;5059284;28;45304;-79
2022/08/02 06:11:59;;;;;;;;;7.00;7.00;;;;;21.23;58.37;100972.56;5062911;28;45240;-78
2022/08/02 06:14:25;;;;;;;;;7.75;7.75;;;;;21.15;58.19;100962.47;5064091;28;45428;-75
2022/08/02 06:16:51;;;;;;;;;8.00;8.00;;;;;21.08;58.35;100959.41;5068339;28;45351;-80
2022/08/02 06:19:18;;;;;;;;;5.75;5.75;;;;;21.15;57.83;100975.84;5067542;28;45332;-79
2022/08/02 06:21:45;;;;;;;;;4.75;4.75;;;;;21.12;57.81;100984.94;5062950;28;45320;-77
2022/08/02 06:24:12;;;;;;;;;7.00;7.00;;;;;21.09;57.87;100979.81;5104352;27;46040;-87
2022/08/02 06:26:38;;;;;;;;;3.75;3.75;;;;;21.10;57.30;100970.84;5084127;28;44704;-84
2022/08/02 06:29:04;;;;;;;;;5.00;5.00;;;;;20.99;57.12;100960.13;5102103;27;44780;-89
2022/08/02 06:31:30;;;;;;;;;6.00;6.00;;;;;21.10;57.27;100980.69;5110678;27;45531;-84
2022/08/02 06:33:59;;;;;;;;;7.25;7.25;;;;;21.14;57.48;100987.50;5091396;27;46866;-84
2022/08/02 06:36:48;;;;;;;;;4.00;4.00;;;;;21.05;56.84;100962.31;5079308;28;44807;-84
2022/08/02 06:39:18;;;;;;;;;5.75;5.75;;;;;21.17;57.59;100990.78;5080286;27;45289;-83
2022/08/02 06:41:48;;;;;;;;;5.75;5.75;;;;;21.19;56.85;100985.31;5081402;27;45517;-82
2022/08/02 06:44:14;;;;;;;;;4.00;4.00;;;;;21.25;57.43;100992.84;5068724;28;45557;-81
2022/08/02 06:46:41;;;;;;;;;4.25;4.25;;;;;21.29;57.02;100988.97;5067118;27;45442;-82
2022/08/02 06:49:07;;;;;;;;;4.25;4.25;;;;;21.33;56.43;100992.25;5064751;28;45437;-86
2022/08/02 06:51:33;;;;;;;;;3.00;3.00;;;;;21.40;56.27;100993.47;5074067;28;45366;-80
2022/08/02 06:53:58;;;;;;;;;5.00;5.00;;;;;21.39;55.83;100994.44;5076362;27;45453;-82
2022/08/02 06:56:23;;;;;;;;;4.00;4.00;;;;;21.48;55.99;101000.03;5091043;27;45445;-80
2022/08/02 06:58:49;;;;;;;;;3.00;3.00;;;;;21.50;56.01;101004.28;5077103;28;45293;-80
2022/08/02 07:01:14;;;;;;;;;3.25;3.25;;;;;21.52;55.88;101001.50;5073632;28;45238;-81
2022/08/02 07:03:40;;;;;;;;;5.00;5.00;;;;;21.56;56.05;101000.28;5078394;27;46815;-79
2022/08/02 07:06:09;;;;;;;;;3.00;3.00;;;;;21.60;55.67;101005.25;5080658;28;45640;-80
2022/08/02 07:08:37;;;;;;;;;4.00;4.00;;;;;21.52;55.43;100991.63;5087796;27;45433;-82
2022/08/02 07:11:06;;;;;;;;;4.50;4.50;;;;;21.67;55.43;101004.78;5075723;27;45575;-80
2022/08/02 07:13:32;;;;;;;;;3.75;3.75;;;;;21.79;55.01;101008.28;5060650;27;45288;-78
2022/08/02 07:15:58;;;;;;;;;5.25;5.25;;;;;21.68;55.12;100980.56;5065389;28;44750;-81
2022/08/02 07:18:23;;;;;;;;;1.00;1.00;;;;;21.87;55.08;100998.69;5063031;27;45402;-72
2022/08/02 07:20:49;;;;;;;;;6.00;5.50;;;;;22.00;55.05;101006.53;5074988;27;45320;-70
2022/08/02 07:23:14;;;;;;;;;6.00;6.00;;;;;22.10;54.45;101016.50;5072765;27;46119;-71
2022/08/02 07:25:40;;;;;;;;;5.50;5.50;;;;;22.13;54.76;101006.38;5073883;27;45384;-71
2022/08/02 07:28:08;;;;;;;;;6.00;6.00;;;;;22.19;54.32;101010.38;5060482;27;45367;-71
2022/08/02 07:30:34;;;;;;;;;4.50;4.50;;;;;22.22;54.29;101011.97;5055343;27;45647;-73
2022/08/02 07:33:00;;;;;;;;;6.00;6.00;;;;;22.26;54.33;101013.41;5065559;27;47084;-78
2022/08/02 07:35:26;;;;;;;;;5.50;5.50;;;;;22.31;54.14;101016.56;5071689;27;46006;-72
2022/08/02 07:37:52;;;;;;;;;4.25;4.25;;;;;22.33;54.02;101026.19;5074690;27;45337;-73
2022/08/02 07:40:18;;;;;;;;;4.75;4.75;;;;;22.36;53.89;101013.50;5075119;28;45271;-72
2022/08/02 07:42:44;;;;;;;;;6.50;6.50;;;;;22.47;53.91;101026.88;5073320;27;47426;-75
2022/08/02 07:45:11;;;;;;;;;5.00;5.00;;;;;22.55;53.90;101013.69;5074354;27;45355;-71
2022/08/02 07:47:38;;;;;;;;;6.50;6.50;;;;;22.63;53.47;101015.69;5074343;28;45416;-71
2022/08/02 07:50:05;;;;;;;;;5.00;5.00;;;;;22.76;52.92;101021.72;5075453;28;45410;-70
2022/08/02 07:52:31;;;;;;;;;5.00;5.00;;;;;22.84;53.06;101013.03;5074849;27;47327;-74
2022/08/02 07:54:56;;;;;;;;;5.00;5.00;;;;;22.96;52.49;101021.00;5074284;27;45326;-73
2022/08/02 07:57:22;;;;;;;;;9.00;9.00;;;;;22.99;53.03;101010.88;5073082;27;45520;-73
2022/08/02 07:59:47;;;;;;;;;4.75;4.75;;;;;23.09;52.23;101013.59;5074377;27;45531;-75
2022/08/02 08:02:13;;;;;;;;;4.25;4.25;;;;;23.12;52.55;101007.97;5075013;27;45290;-70
2022/08/02 08:04:39;;;;;;;;;6.75;6.75;;;;;23.13;51.81;101006.97;5072748;28;45450;-71
2022/08/02 08:07:08;;;;;;;;;4.50;4.50;;;;;23.20;51.70;101005.44;5075008;27;45295;-71
2022/08/02 08:09:38;;;;;;;;;6.00;6.00;;;;;23.37;51.65;101005.88;5075262;27;45463;-70
2022/08/02 08:12:05;;;;;;;;;5.00;5.00;;;;;23.47;51.51;101005.88;5075095;27;45354;-73
2022/08/02 08:14:30;;;;;;;;;5.75;5.75;;;;;23.66;51.23;101005.09;5074441;27;45383;-70
2022/08/02 08:16:56;;;;;;;;;11.25;11.25;;;;;23.85;51.10;101006.13;5074484;27;45318;-74
2022/08/02 08:19:21;;;;;;;;;4.50;4.50;;;;;23.99;50.47;101011.09;5075044;27;45371;-72
2022/08/02 08:21:46;;;;;;;;;5.00;5.00;;;;;24.03;50.27;101015.25;5074601;27;45496;-72
2022/08/02 08:24:12;;;;;;;;;7.00;7.00;;;;;24.06;50.12;101009.59;5075117;27;45437;-74
2022/08/02 08:26:38;;;;;;;;;7.00;7.00;;;;;24.11;50.26;101008.31;5074583;27;45440;-73
2022/08/02 08:29:06;;;;;;;;;8.25;8.25;;;;;24.13;49.98;101000.97;5074171;27;45427;-71
2022/08/02 08:31:32;;;;;;;;;4.25;4.25;;;;;24.22;50.36;101008.19;5073214;27;46371;-72
2022/08/02 08:33:57;;;;;;;;;7.50;7.50;;;;;24.29;49.51;101009.31;5072327;27;45424;-73
2022/08/02 08:36:22;;;;;;;;;7.00;7.00;;;;;24.31;49.55;101007.34;5074372;27;45220;-72
2022/08/02 08:38:49;;;;;;;;;7.00;7.00;;;;;24.34;49.95;101004.34;5073883;27;45627;-72
2022/08/02 08:41:19;;;;;;;;;8.25;8.25;;;;;24.44;49.63;101007.06;5074208;27;45595;-71
2022/08/02 08:43:45;;;;;;;;;6.00;6.00;;;;;24.49;49.30;100996.72;5074094;27;45389;-70
2022/08/02 08:46:23;;;;;;;;;5.50;5.50;;;;;24.65;49.57;100997.97;5074123;27;45405;-72
2022/08/02 08:48:52;;;;;;;;;9.25;9.25;;;;;24.73;49.21;100998.13;5074291;27;45367;-73
2022/08/02 08:51:20;;;;;;;;;9.00;9.00;;;;;24.88;49.26;101001.22;5073971;27;47359;-74
2022/08/02 08:53:48;;;;;;;;;5.50;5.50;;;;;24.94;48.37;100999.81;5077594;28;45134;-70
2022/08/02 08:56:15;;;;;;;;;6.25;6.25;;;;;25.00;48.49;101006.44;5077092;27;45245;-73
2022/08/02 08:58:42;;;;;;;;;7.50;7.50;;;;;25.08;48.55;100999.34;5077483;27;45573;-70
2022/08/02 09:01:08;;;;;;;;;7.75;7.75;;;;;25.20;48.00;100999.16;5076806;27;45531;-73
2022/08/02 09:03:33;;;;;;;;;7.50;6.75;;;;;25.29;47.68;100987.50;5076466;27;45446;-74
2022/08/02 09:05:59;;;;;;;;;7.00;7.00;;;;;25.43;47.66;100991.50;5075496;27;45577;-72
2022/08/02 09:08:25;;;;;;;;;8.25;7.50;;;;;25.55;47.61;100991.38;5076464;28;45482;-73
2022/08/02 09:10:51;;;;;;;;;7.50;7.50;;;;;25.71;46.99;100999.66;5076810;27;46045;-71
2022/08/02 09:13:19;;;;;;;;;5.00;5.00;;;;;25.76;46.96;100991.97;5077044;27;45532;-70
2022/08/02 09:15:52;;;;;;;;;8.00;8.00;;;;;25.88;46.90;100989.03;5079047;27;45569;-71
2022/08/02 09:18:17;;;;;;;;;10.75;10.00;;;;;26.02;46.90;100991.19;5079408;27;45319;-71
2022/08/02 09:20:56;;;;;;;;;8.25;8.25;;;;;26.19;46.43;100991.38;5077491;27;47431;-72
2022/08/02 09:23:22;;;;;;;;;6.00;6.00;;;;;26.23;46.03;100981.97;5076832;27;45430;-74
2022/08/02 09:25:57;;;;;;;;;8.00;8.00;;;;;26.37;45.44;100994.91;5076673;27;45455;-69
2022/08/02 09:28:28;;;;;;;;;7.00;7.00;;;;;26.44;46.12;100984.38;5075977;28;45398;-73
2022/08/02 09:31:07;;;;;;;;;8.00;8.00;;;;;26.56;45.58;100984.09;5077205;27;46656;-71
2022/08/02 09:33:34;;;;;;;;;9.00;8.00;;;;;26.61;45.25;100982.66;5077320;27;45323;-73
2022/08/02 09:36:05;;;;;;;;;7.00;7.00;;;;;26.64;45.48;100985.03;5076827;27;45439;-71
2022/08/02 09:38:31;;;;;;;;;6.25;6.25;;;;;26.74;44.47;100982.22;5077193;27;45366;-71
2022/08/02 09:40:58;;;;;;;;;7.50;7.50;;;;;26.77;44.63;100981.91;5077258;27;45429;-70
2022/08/02 09:43:42;;;;;;;;;7.00;7.00;;;;;26.81;44.35;100977.03;5079884;28;45451;-72
2022/08/02 09:46:14;;;;;;;;;8.00;8.00;;;;;26.81;44.26;100980.56;5082146;27;45353;-71
2022/08/02 09:48:51;;;;;;;;;7.50;7.50;;;;;26.86;44.59;100982.84;5082125;27;45642;-75
2022/08/02 09:51:19;;;;;;;;;9.00;9.00;;;;;26.96;44.25;100975.47;5078377;27;46255;-74
2022/08/02 09:53:46;;;;;;;;;9.00;8.50;;;;;27.01;43.97;100974.16;5077061;27;45832;-75
2022/08/02 09:56:11;;;;;;;;;7.00;7.00;;;;;27.07;43.58;100976.19;5077103;27;45214;-75
2022/08/02 09:58:38;;;;;;;;;6.50;6.50;;;;;27.17;43.37;100962.59;5077646;27;45314;-74
2022/08/02 10:01:04;;;;;;;;;7.50;7.50;;;;;27.22;43.92;100968.34;5076171;27;45480;-75
2022/08/02 10:03:29;;;;;;;;;5.75;5.75;;;;;27.22;43.76;100963.78;5076786;27;45769;-73
2022/08/02 10:06:00;;;;;;;;;5.75;5.75;;;;;27.31;43.60;100967.38;5076462;27;45780;-73
2022/08/02 10:08:30;;;;;;;;;5.25;5.25;;;;;27.37;43.51;100963.16;5076796;27;45234;-76
2022/08/02 10:11:02;;;;;;;;;8.00;8.00;;;;;27.41;43.32;100959.97;5076333;27;46316;-74
2022/08/02 10:13:33;;;;;;;;;7.25;7.25;;;;;27.54;42.97;100964.94;5076555;27;45417;-74
2022/08/02 10:16:01;;;;;;;;;8.25;8.25;;;;;27.62;43.16;100964.13;5076747;27;45453;-74
2022/08/02 10:18:27;;;;;;;;;9.75;9.75;;;;;27.65;42.88;100963.78;5077031;27;45267;-72
2022/08/02 10:20:55;;;;;;;;;8.25;8.25;;;;;27.62;42.62;100949.78;5076426;27;46618;-76
2022/08/02 10:23:24;;;;;;;;;10.50;10.50;;;;;27.84;41.90;100962.66;5058054;28;45467;-71
2022/08/02 10:25:52;;;;;;;;;8.00;8.00;;;;;27.97;42.27;100953.22;5076265;27;45280;-75
2022/08/02 10:28:30;;;;;;;;;6.25;6.25;;;;;28.05;41.61;100953.22;5076945;27;45256;-72
2022/08/02 10:30:58;;;;;;;;;5.25;5.25;;;;;27.99;41.40;100946.63;5076327;27;46585;-74
2022/08/02 10:33:26;;;;;;;;;13.00;13.00;;;;;27.99;41.57;100968.25;5076127;27;45380;-76
2022/08/02 10:35:56;;;;;;;;;5.75;5.75;;;;;28.02;41.85;100960.81;5076685;28;45239;-75
2022/08/02 10:38:23;;;;;;;;;6.50;6.50;;;;;28.07;41.45;100964.72;5076563;27;45351;-75
2022/08/02 10:40:51;;;;;;;;;5.00;5.00;;;;;28.10;40.81;100953.56;5076421;27;46691;-76
2022/08/02 10:43:46;;;;;;;;;7.50;7.50;;;;;28.26;40.85;100960.00;5076543;27;45345;-75
2022/08/02 10:46:33;;;;;;;;;8.00;8.00;;;;;28.35;40.53;100959.00;5075776;27;45358;-71
2022/08/02 10:49:08;;;;;;;;;6.50;6.50;;;;;28.39;41.04;100954.09;5077424;27;45235;-72
2022/08/02 10:51:56;;;;;;;;;7.75;7.75;;;;;28.42;40.99;100954.59;5076932;27;46083;-74
2022/08/02 10:54:33;;;;;;;;;5.50;5.50;;;;;28.55;40.20;100964.91;5076484;27;45477;-76
2022/08/02 10:56:59;;;;;;;;;4.50;4.50;;;;;28.62;39.84;100948.81;5076346;28;45372;-73
2022/08/02 10:59:30;;;;;;;;;6.00;6.00;;;;;28.66;39.74;100954.72;5076572;27;45381;-72
2022/08/02 11:02:00;;;;;;;;;6.25;6.25;;;;;28.69;39.09;100947.13;5076123;27;45498;-72
2022/08/02 11:04:40;;;;;;;;;4.00;4.00;;;;;28.61;39.19;100941.72;5077511;27;45188;-72
2022/08/02 11:07:16;;;;;;;;;5.50;5.50;;;;;28.66;39.51;100949.31;5078830;27;45283;-71
2022/08/02 11:09:46;;;;;;;;;6.00;6.00;;;;;28.77;38.53;100946.28;5076990;27;45371;-76
2022/08/02 11:12:15;;;;;;;;;4.00;4.00;;;;;28.82;38.41;100943.06;5076548;27;46142;-71
2022/08/02 11:14:43;;;;;;;;;5.00;5.00;;;;;28.85;37.94;100942.72;5076049;28;45393;-77
2022/08/02 11:17:16;;;;;;;;;3.25;3.25;;;;;28.92;38.23;100940.16;5077800;27;45432;-73
2022/08/02 11:20:19;;;;;;;;;3.25;3.25;;;;;29.04;38.18;100937.91;5061115;28;45656;-75
2022/08/02 11:22:46;;;;;;;;;2.75;2.75;;;;;29.13;37.70;100936.88;5036084;28;45244;-76
2022/08/02 11:25:20;;;;;;;;;5.50;5.50;;;;;29.23;37.08;100940.19;5064992;28;45370;-75
2022/08/02 11:27:53;;;;;;;;;4.00;4.00;;;;;29.29;36.71;100928.66;5076764;27;45382;-76
2022/08/02 11:30:19;;;;;;;;;3.25;3.25;;;;;29.43;36.73;100932.53;5077095;28;45547;-74
2022/08/02 11:32:45;;;;;;;;;6.00;6.00;;;;;29.50;36.90;100920.97;5079225;28;46101;-74